.
WxDataArchive / Data Records for 2006-10-20
2006-10-19 October 2006 2006-10-21

Data Records for Friday, 20 October 2006

Time	Temp	Chill	HIndex	Humid	Dewpt	 Wind 	HiWind	WindDir	Rain 	Barom 
-----	----	-----	------	-----	-----	------	------	-------	-----	----- 
00:00	43.6	43.6	43.6	81	38.2	0	0	---	0.00	29.759 
00:05	43.6	43.6	43.6	81	38.2	0	1	338	0.00	29.759 
00:10	43.5	43.5	43.5	81	38.1	0	0	---	0.00	29.759 
00:15	43.5	43.5	43.5	81	38.1	0	0	---	0.00	29.755 
00:20	43.5	43.5	43.5	81	38.1	0	1	338	0.00	29.755 
00:25	43.5	43.5	43.5	81	38.1	0	0	---	0.00	29.755 
00:30	43.5	43.5	43.5	81	38.1	0	1	338	0.00	29.752 
00:35	43.5	43.5	43.5	81	38.1	0	0	---	0.00	29.752 
00:40	43.3	43.3	43.3	81	37.9	0	1	338	0.00	29.752 
00:45	43.3	43.3	43.3	81	37.9	0	1	338	0.00	29.738 
00:50	43.3	43.3	43.3	81	37.9	0	0	---	0.00	29.738 
00:55	43.3	43.3	43.3	80	37.6	0	2	338	0.00	29.738 
01:00	43.3	43.3	43.3	80	37.6	0	1	315	0.00	29.750 
01:05	43.3	43.3	43.3	81	37.9	0	0	---	0.00	29.750 
01:10	43.3	43.3	43.3	80	37.6	0	2	315	0.00	29.750 
01:15	43.3	43.3	43.3	80	37.6	0	1	315	0.00	29.745 
01:20	43.3	43.3	43.3	79	37.2	0	1	315	0.00	29.745 
01:25	43.2	43.2	43.2	79	37.1	0	1	315	0.00	29.745 
01:30	43.2	43.2	43.2	80	37.5	0	1	315	0.00	29.743 
01:35	43.2	43.2	43.2	79	37.1	0	2	315	0.00	29.743 
01:40	43.2	43.2	43.2	79	37.1	0	2	315	0.00	29.743 
01:45	43.2	43.2	43.2	79	37.1	0	3	315	0.00	29.749 
01:50	43.2	43.2	43.2	79	37.1	0	1	270	0.00	29.749 
01:55	43.1	43.1	43.1	79	37.0	0	1	270	0.00	29.749 
02:00	43.1	43.1	43.1	79	37.0	0	2	270	0.00	29.745 
02:05	43.1	43.1	43.1	79	37.0	0	2	292	0.00	29.745 
02:10	43.1	43.1	43.1	80	37.4	0	1	292	0.00	29.745 
02:15	43.1	43.1	43.1	79	37.0	0	2	292	0.00	29.749 
02:20	43.1	43.1	43.1	78	36.7	1	2	315	0.00	29.749 
02:25	43.1	43.1	43.1	79	37.0	0	3	270	0.00	29.749 
02:30	43.1	43.1	43.1	79	37.0	0	2	270	0.00	29.753 
02:35	43.1	43.1	43.1	79	37.0	0	2	270	0.00	29.753 
02:40	43.1	43.1	43.1	78	36.7	0	1	270	0.00	29.753 
02:45	42.9	42.9	42.9	78	36.5	0	2	270	0.00	29.750 
02:50	42.9	42.9	42.9	78	36.5	0	1	270	0.00	29.750 
02:55	42.9	42.9	42.9	78	36.5	0	1	270	0.00	29.750 
03:00	42.9	42.9	42.9	77	36.2	0	1	270	0.00	29.749 
03:05	42.9	42.9	42.9	77	36.2	0	2	292	0.00	29.749 
03:10	42.9	42.9	42.9	77	36.2	0	1	292	0.00	29.749 
03:15	42.9	42.9	42.9	77	36.2	0	2	292	0.00	29.754 
03:20	42.9	42.9	42.9	76	35.9	0	2	0	0.00	29.754 
03:25	42.9	42.9	42.9	77	36.2	0	1	0	0.00	29.754 
03:30	42.8	42.8	42.8	77	36.1	0	1	0	0.00	29.752 
03:35	42.8	42.8	42.8	77	36.1	0	1	0	0.00	29.752 
03:40	42.8	42.8	42.8	76	35.8	0	1	338	0.00	29.752 
03:45	42.6	42.6	42.6	76	35.6	0	2	338	0.00	29.741 
03:50	42.6	42.6	42.6	76	35.6	0	1	338	0.00	29.741 
03:55	42.6	42.6	42.6	75	35.2	0	2	315	0.00	29.741 
04:00	42.6	42.6	42.6	75	35.2	0	1	315	0.00	29.740 
04:05	42.6	42.6	42.6	76	35.6	0	1	315	0.00	29.740 
04:10	42.5	42.5	42.5	75	35.1	0	1	315	0.00	29.740 
04:15	42.5	42.5	42.5	75	35.1	0	1	315	0.00	29.742 
04:20	42.5	42.5	42.5	75	35.1	0	1	315	0.00	29.742 
04:25	42.5	42.5	42.5	74	34.8	0	1	315	0.00	29.742 
04:30	42.5	42.5	42.5	75	35.1	0	1	315	0.00	29.746 
04:35	42.5	42.5	42.5	76	35.5	0	1	315	0.00	29.746 
04:40	42.5	42.5	42.5	76	35.5	0	1	315	0.00	29.746 
04:45	42.3	42.3	42.3	75	35.0	0	1	315	0.00	29.753 
04:50	42.3	42.3	42.3	75	35.0	0	1	315	0.00	29.753 
04:55	42.3	42.3	42.3	75	35.0	0	1	315	0.00	29.753 
05:00	42.3	42.3	42.3	76	35.3	0	1	315	0.00	29.754 
05:05	42.3	42.3	42.3	76	35.3	0	1	315	0.00	29.754 
05:10	42.3	42.3	42.3	76	35.3	0	1	315	0.00	29.754 
05:15	42.3	42.3	42.3	75	35.0	0	1	315	0.00	29.755 
05:20	42.3	42.3	42.3	75	35.0	0	2	315	0.00	29.755 
05:25	42.3	42.3	42.3	76	35.3	0	1	315	0.00	29.755 
05:30	42.3	42.3	42.3	76	35.3	0	3	315	0.00	29.766 
05:35	42.3	42.3	42.3	76	35.3	0	1	248	0.00	29.766 
05:40	42.3	42.3	42.3	76	35.3	0	1	248	0.00	29.766 
05:45	42.3	42.3	42.3	77	35.6	0	1	248	0.00	29.760 
05:50	42.3	42.3	42.3	77	35.6	0	2	248	0.00	29.760 
05:55	42.3	42.3	42.3	77	35.6	0	1	248	0.00	29.760 
06:00	42.3	42.3	42.3	78	35.9	0	2	248	0.00	29.756 
06:05	42.3	42.3	42.3	78	35.9	0	1	270	0.00	29.756 
06:10	42.3	42.3	42.3	78	35.9	0	3	248	0.00	29.756 
06:15	42.3	42.3	42.3	78	35.9	0	1	248	0.00	29.763 
06:20	42.3	42.3	42.3	79	36.3	0	1	248	0.00	29.763 
06:25	42.2	42.2	42.2	78	35.8	0	1	248	0.00	29.763 
06:30	42.3	42.3	42.3	77	35.6	0	2	248	0.00	29.770 
06:35	42.3	42.3	42.3	77	35.6	0	2	270	0.00	29.770 
06:40	42.3	42.3	42.3	78	35.9	0	1	292	0.00	29.770 
06:45	42.3	42.3	42.3	80	36.6	0	1	292	0.00	29.773 
06:50	42.3	42.3	42.3	81	36.9	0	2	292	0.00	29.773 
06:55	42.2	42.2	42.2	81	36.8	0	2	292	0.00	29.773 
07:00	42.2	42.2	42.2	81	36.8	0	1	292	0.00	29.782 
07:05	42.2	42.2	42.2	81	36.8	0	1	292	0.00	29.782 
07:10	42.2	42.2	42.2	81	36.8	0	1	292	0.00	29.782 
07:15	42.2	42.2	42.2	81	36.8	0	1	292	0.00	29.784 
07:20	42.2	42.2	42.2	81	36.8	0	1	292	0.00	29.784 
07:25	42.2	42.2	42.2	81	36.8	0	1	292	0.00	29.784 
07:30	42.2	42.2	42.2	81	36.8	0	1	292	0.00	29.788 
07:35	42.2	42.2	42.2	81	36.8	0	2	292	0.00	29.788 
07:40	42.2	42.2	42.2	81	36.8	0	2	270	0.00	29.788 
07:45	42.2	42.2	42.2	81	36.8	0	1	270	0.00	29.789 
07:50	42.2	42.2	42.2	81	36.8	0	2	270	0.00	29.789 
07:55	42.2	42.2	42.2	80	36.5	0	2	270	0.00	29.789 
08:00	42.3	42.3	42.3	80	36.6	0	1	270	0.00	29.788 
08:05	42.3	42.3	42.3	80	36.6	0	1	270	0.00	29.788 
08:10	42.3	42.3	42.3	80	36.6	0	1	270	0.00	29.788 
08:15	42.3	42.3	42.3	81	36.9	0	1	270	0.00	29.788 
08:20	42.3	42.3	42.3	81	36.9	0	2	270	0.00	29.788 
08:25	42.3	42.3	42.3	81	36.9	0	1	270	0.00	29.788 
08:30	42.3	42.3	42.3	82	37.2	0	1	270	0.00	29.791 
08:35	42.5	42.5	42.5	82	37.4	0	1	270	0.00	29.791 
08:40	42.5	42.5	42.5	82	37.4	0	1	270	0.00	29.791 
08:45	42.6	42.6	42.6	83	37.8	0	1	270	0.00	29.803 
08:50	42.6	42.6	42.6	83	37.8	0	2	270	0.00	29.803 
08:55	42.6	42.6	42.6	83	37.8	0	1	270	0.00	29.803 
09:00	42.8	42.8	42.8	83	38.0	0	1	270	0.00	29.805 
09:05	42.8	42.8	42.8	83	38.0	0	1	270	0.00	29.805 
09:10	42.8	42.8	42.8	82	37.7	0	2	270	0.00	29.805 
09:15	42.9	42.9	42.9	83	38.1	0	1	270	0.00	29.812 
09:20	42.9	42.9	42.9	82	37.8	1	2	270	0.00	29.812 
09:25	43.1	43.1	43.1	82	38.0	0	1	270	0.00	29.812 
09:30	43.1	43.1	43.1	82	38.0	1	2	270	0.00	29.818 
09:35	43.1	43.1	43.1	82	38.0	1	2	270	0.00	29.818 
09:40	43.2	43.2	43.2	82	38.1	1	2	270	0.00	29.818 
09:45	43.1	43.1	43.1	82	38.0	1	3	248	0.00	29.821 
09:50	43.1	43.1	43.1	82	38.0	1	3	248	0.00	29.821 
09:55	43.2	43.2	43.2	83	38.4	1	3	292	0.00	29.821 
10:00	43.3	43.3	43.3	82	38.2	1	3	270	0.00	29.827 
10:05	43.3	43.3	43.3	81	37.9	1	2	270	0.00	29.827 
10:10	43.5	43.5	43.5	81	38.1	1	3	270	0.00	29.827 
10:15	43.6	43.6	43.6	81	38.2	1	2	270	0.00	29.833 
10:20	43.8	43.8	43.8	80	38.0	1	3	270	0.00	29.833 
10:25	43.8	43.8	43.8	80	38.0	1	3	270	0.00	29.833 
10:30	44.1	44.1	44.1	80	38.3	1	2	248	0.00	29.833 
10:35	44.1	44.1	44.1	78	37.7	1	2	270	0.00	29.833 
10:40	44.2	44.2	44.2	78	37.8	0	2	270	0.00	29.833 
10:45	44.3	44.3	44.3	77	37.6	1	3	292	0.00	29.836 
10:50	44.3	44.3	44.3	77	37.6	1	3	292	0.00	29.836 
10:55	44.6	44.6	44.6	77	37.8	0	2	292	0.00	29.836 
11:00	44.6	44.6	44.6	75	37.2	1	2	292	0.00	29.833 
11:05	45.1	45.1	45.1	76	38.0	0	1	292	0.00	29.833 
11:10	45.4	45.4	45.4	73	37.3	1	3	292	0.00	29.833 
11:15	45.7	45.7	45.7	73	37.5	1	3	270	0.00	29.835 
11:20	45.7	45.7	45.7	73	37.5	1	5	270	0.00	29.835 
11:25	46.0	46.0	46.0	71	37.1	1	3	292	0.00	29.835 
11:30	46.5	46.5	46.5	72	38.0	1	4	315	0.00	29.837 
11:35	46.8	46.8	46.8	69	37.2	2	4	292	0.00	29.837 
11:40	46.7	46.7	46.7	68	36.7	1	3	315	0.00	29.837 
11:45	47.3	47.3	47.3	69	37.7	1	3	270	0.00	29.846 
11:50	47.7	47.7	47.7	69	38.0	1	4	248	0.00	29.846 
11:55	47.6	47.6	47.6	65	36.4	2	4	270	0.00	29.846 
12:00	47.3	47.3	47.3	65	36.1	1	4	248	0.00	29.846 
12:05	47.3	47.3	47.3	67	36.9	2	4	248	0.00	29.846 
12:10	47.0	47.0	47.0	66	36.2	1	3	315	0.00	29.846 
12:15	46.8	46.8	46.8	69	37.2	1	3	315	0.00	29.846 
12:20	47.4	47.4	47.4	67	37.0	1	4	270	0.00	29.846 
12:25	47.1	47.1	47.1	63	35.2	2	5	270	0.00	29.846 
12:30	46.8	46.8	46.8	65	35.7	1	4	248	0.00	29.842 
12:35	46.8	46.8	46.8	62	34.5	1	4	248	0.00	29.842 
12:40	46.7	46.7	46.7	64	35.2	2	5	270	0.00	29.842 
12:45	47.1	47.1	47.1	64	35.6	1	5	248	0.00	29.841 
12:50	47.7	47.7	47.7	61	34.9	2	4	292	0.00	29.841 
12:55	48.6	48.6	48.6	61	35.8	2	6	248	0.00	29.841 
13:00	48.5	48.5	48.5	58	34.4	2	4	270	0.00	29.832 
13:05	48.8	48.8	48.8	60	35.5	1	3	270	0.00	29.832 
13:10	48.5	48.5	48.5	59	34.8	1	3	315	0.00	29.832 
13:15	48.0	48.0	48.0	58	33.9	1	3	292	0.00	29.831 
13:20	47.6	47.6	47.6	57	33.1	2	4	292	0.00	29.831 
13:25	47.9	47.9	47.9	60	34.7	1	4	248	0.00	29.831 
13:30	47.7	47.7	47.7	58	33.7	1	3	270	0.00	29.832 
13:35	47.7	47.7	47.7	60	34.5	2	4	270	0.00	29.832 
13:40	48.6	48.6	48.6	61	35.8	2	4	248	0.00	29.832 
13:45	49.2	49.2	49.2	59	35.5	1	4	270	0.00	29.829 
13:50	49.1	49.1	49.1	57	34.5	1	4	270	0.00	29.829 
13:55	49.2	49.2	49.2	55	33.7	3	5	270	0.00	29.829 
14:00	48.8	48.8	48.8	56	33.8	2	6	248	0.00	29.832 
14:05	48.8	48.8	48.8	57	34.3	2	5	270	0.00	29.832 
14:10	49.5	49.5	49.5	56	34.5	2	4	248	0.00	29.832 
14:15	49.4	49.4	49.4	56	34.4	2	4	248	0.00	29.831 
14:20	49.2	49.2	49.2	56	34.2	3	5	248	0.00	29.831 
14:25	49.1	49.1	49.1	55	33.6	2	6	270	0.00	29.831 
14:30	49.2	49.2	49.2	56	34.2	1	3	248	0.00	29.831 
14:35	49.8	49.8	49.8	55	34.3	1	4	248	0.00	29.831 
14:40	49.9	49.9	49.9	54	33.9	3	6	270	0.00	29.831 
14:45	49.8	49.8	49.8	54	33.8	2	5	270	0.00	29.827 
14:50	49.8	49.8	49.8	54	33.8	2	5	270	0.00	29.827 
14:55	49.6	49.6	49.6	53	33.2	2	4	248	0.00	29.827 
15:00	49.4	49.4	49.4	55	33.9	1	6	248	0.00	29.819 
15:05	49.8	49.8	49.8	54	33.8	2	5	270	0.00	29.819 
15:10	50.5	50.5	50.5	53	34.0	3	7	270	0.00	29.819 
15:15	51.0	51.0	51.0	51	33.5	2	4	270	0.00	29.824 
15:20	50.1	50.1	50.1	52	33.2	2	6	292	0.00	29.824 
15:25	50.1	50.1	50.1	56	35.0	2	5	270	0.00	29.824 
15:30	49.9	49.9	49.9	52	33.0	3	7	248	0.00	29.828 
15:35	49.8	49.8	49.8	53	33.4	2	6	248	0.00	29.828 
15:40	49.9	49.9	49.9	54	33.9	2	5	270	0.00	29.828 
15:45	50.2	50.2	50.2	54	34.2	2	6	248	0.00	29.820 
15:50	50.4	50.4	50.4	51	33.0	2	5	248	0.00	29.820 
15:55	50.7	50.7	50.7	51	33.2	3	6	270	0.00	29.820 
16:00	51.1	51.1	51.1	50	33.1	2	5	248	0.00	29.814 
16:05	51.4	51.4	51.4	51	33.9	2	4	248	0.00	29.814 
16:10	51.1	51.1	51.1	53	34.6	2	4	292	0.00	29.814 
16:15	51.0	51.0	51.0	50	33.0	2	4	270	0.00	29.817 
16:20	50.8	50.8	50.8	50	32.8	2	5	270	0.00	29.817 
16:25	50.8	50.8	50.8	52	33.8	2	4	248	0.00	29.817 
16:30	50.8	50.8	50.8	52	33.8	2	4	270	0.00	29.822 
16:35	50.7	50.7	50.7	50	32.7	2	3	270	0.00	29.822 
16:40	50.7	50.7	50.7	52	33.7	1	4	270	0.00	29.822 
16:45	50.7	50.7	50.7	50	32.7	2	5	270	0.00	29.829 
16:50	50.5	50.5	50.5	50	32.6	2	6	248	0.00	29.829 
16:55	50.5	50.5	50.5	52	33.5	2	7	270	0.00	29.829 
17:00	50.5	50.5	50.5	50	32.6	1	2	248	0.00	29.830 
17:05	50.4	50.4	50.4	50	32.5	2	5	292	0.00	29.830 
17:10	50.5	50.5	50.5	51	33.1	1	3	248	0.00	29.830 
17:15	50.5	50.5	50.5	50	32.6	1	3	270	0.00	29.830 
17:20	50.4	50.4	50.4	49	32.0	2	4	270	0.00	29.830 
17:25	50.1	50.1	50.1	51	32.7	1	3	248	0.00	29.830 
17:30	50.1	50.1	50.1	54	34.1	0	2	248	0.00	29.831 
17:35	49.8	49.8	49.8	53	33.4	1	3	248	0.00	29.831 
17:40	49.6	49.6	49.6	51	32.2	1	4	270	0.00	29.831 
17:45	49.4	49.4	49.4	51	32.0	2	5	248	0.00	29.833 
17:50	49.2	49.2	49.2	51	31.9	1	3	248	0.00	29.833 
17:55	49.2	49.2	49.2	51	31.9	1	3	248	0.00	29.833 
18:00	49.4	49.4	49.4	52	32.5	1	2	248	0.00	29.838 
18:05	49.4	49.4	49.4	51	32.0	1	3	270	0.00	29.838 
18:10	49.2	49.2	49.2	52	32.3	0	2	248	0.00	29.838 
18:15	49.1	49.1	49.1	54	33.2	0	1	248	0.00	29.839 
18:20	48.9	48.9	48.9	54	33.0	0	1	248	0.00	29.839 
18:25	48.8	48.8	48.8	54	32.9	1	2	248	0.00	29.839 
18:30	48.6	48.6	48.6	54	32.7	1	3	248	0.00	29.838 
18:35	48.6	48.6	48.6	53	32.3	1	3	248	0.00	29.838 
18:40	48.5	48.5	48.5	54	32.6	1	2	248	0.00	29.838 
18:45	48.5	48.5	48.5	54	32.6	1	3	248	0.00	29.844 
18:50	48.2	48.2	48.2	55	32.8	0	1	225	0.00	29.844 
18:55	48.0	48.0	48.0	56	33.1	0	1	225	0.00	29.844 
19:00	47.7	47.7	47.7	57	33.2	0	2	225	0.00	29.850 
19:05	47.6	47.6	47.6	58	33.6	0	2	225	0.00	29.850 
19:10	47.4	47.4	47.4	57	32.9	0	1	248	0.00	29.850 
19:15	47.3	47.3	47.3	58	33.3	0	2	248	0.00	29.856 
19:20	47.1	47.1	47.1	58	33.1	0	1	248	0.00	29.856 
19:25	47.0	47.0	47.0	59	33.4	0	1	248	0.00	29.856 
19:30	47.0	47.0	47.0	59	33.4	0	3	248	0.00	29.856 
19:35	47.0	47.0	47.0	60	33.8	0	2	248	0.00	29.856 
19:40	47.0	47.0	47.0	60	33.8	0	2	248	0.00	29.856 
19:45	47.0	47.0	47.0	60	33.8	0	1	248	0.00	29.864 
19:50	47.0	47.0	47.0	60	33.8	0	4	248	0.00	29.864 
19:55	47.0	47.0	47.0	59	33.4	0	2	248	0.00	29.864 
20:00	47.0	47.0	47.0	59	33.4	0	3	248	0.00	29.863 
20:05	46.8	46.8	46.8	59	33.2	0	1	248	0.00	29.863 
20:10	46.8	46.8	46.8	59	33.2	0	1	248	0.00	29.863 
20:15	46.7	46.7	46.7	60	33.6	0	1	248	0.00	29.864 
20:20	46.5	46.5	46.5	61	33.8	0	1	248	0.00	29.864 
20:25	46.4	46.4	46.4	61	33.7	0	1	248	0.00	29.864 
20:30	46.2	46.2	46.2	62	33.9	0	1	248	0.00	29.874 
20:35	46.1	46.1	46.1	63	34.2	0	1	248	0.00	29.874 
20:40	46.0	46.0	46.0	63	34.1	0	1	248	0.00	29.874 
20:45	45.8	45.8	45.8	64	34.3	0	0	---	0.00	29.876 
20:50	45.7	45.7	45.7	64	34.2	0	1	248	0.00	29.876 
20:55	45.4	45.4	45.4	65	34.3	0	0	---	0.00	29.876 
21:00	45.2	45.2	45.2	65	34.1	0	0	---	0.00	29.877 
21:05	44.9	44.9	44.9	66	34.2	0	0	---	0.00	29.877 
21:10	44.6	44.6	44.6	67	34.3	0	0	---	0.00	29.877 
21:15	44.5	44.5	44.5	67	34.2	0	0	---	0.00	29.877 
21:20	44.2	44.2	44.2	69	34.7	0	0	---	0.00	29.877 
21:25	44.1	44.1	44.1	69	34.6	0	0	---	0.00	29.877 
21:30	43.9	43.9	43.9	70	34.8	0	0	---	0.00	29.881 
21:35	43.9	43.9	43.9	71	35.1	0	0	---	0.00	29.881 
21:40	43.8	43.8	43.8	71	35.0	0	0	---	0.00	29.881 
21:45	43.6	43.6	43.6	71	34.8	0	0	---	0.00	29.881 
21:50	43.5	43.5	43.5	72	35.1	0	0	---	0.00	29.881 
21:55	43.5	43.5	43.5	72	35.1	0	0	---	0.00	29.881 
22:00	43.3	43.3	43.3	73	35.2	0	0	---	0.00	29.881 
22:05	43.2	43.2	43.2	73	35.1	0	1	248	0.00	29.881 
22:10	43.2	43.2	43.2	73	35.1	0	0	---	0.00	29.881 
22:15	43.2	43.2	43.2	74	35.5	0	0	---	0.00	29.879 
22:20	43.3	43.3	43.3	74	35.6	0	0	---	0.00	29.879 
22:25	43.3	43.3	43.3	74	35.6	0	0	---	0.00	29.879 
22:30	43.3	43.3	43.3	74	35.6	0	0	---	0.00	29.880 
22:35	43.5	43.5	43.5	75	36.1	0	1	248	0.00	29.880 
22:40	43.5	43.5	43.5	74	35.8	0	1	248	0.00	29.880 
22:45	43.6	43.6	43.6	74	35.9	0	1	248	0.00	29.883 
22:50	43.6	43.6	43.6	74	35.9	0	1	248	0.00	29.883 
22:55	43.6	43.6	43.6	74	35.9	0	0	---	0.00	29.883 
23:00	43.6	43.6	43.6	74	35.9	0	0	---	0.00	29.882 
23:05	43.6	43.6	43.6	74	35.9	0	1	248	0.00	29.882 
23:10	43.5	43.5	43.5	74	35.8	0	0	---	0.00	29.882 
23:15	43.5	43.5	43.5	74	35.8	0	1	248	0.00	29.884 
23:20	43.5	43.5	43.5	74	35.8	0	0	---	0.00	29.884 
23:25	43.3	43.3	43.3	74	35.6	0	0	---	0.00	29.884 
23:30	43.3	43.3	43.3	75	35.9	0	1	248	0.00	29.890 
23:35	43.3	43.3	43.3	75	35.9	0	1	248	0.00	29.890 
23:40	43.3	43.3	43.3	75	35.9	0	1	248	0.00	29.890 
23:45	43.3	43.3	43.3	75	35.9	0	1	248	0.00	29.890 
23:50	43.5	43.5	43.5	74	35.8	0	1	248	0.00	29.890 
23:55	43.5	43.5	43.5	74	35.8	0	3	248	0.00	29.890 

CoCoRaHS
IN-AL-39
A2 Web Hosting
Creative Commons License
GoDaddy
Look for:

loaded 2017-10-17 09:09:28 • last modified 2010-11-18 10:43:29
Privacy PolicyDisclaimer
• wx.awcolley.com is powered by PmWiki v.2002016 •
• all content (unless otherwise noted) © 2017 A W Colley